Aviation Digital Data Service (ADDS)

Output produced by METARs form (0325 UTC 30 July 2016)
found at http://aviationweather.gov/adds/metars/
 
KRUT 292320Z 3000/3024 13005KT P6SM FEW250 
     FM302000 33005KT P6SM BKN110 AMD LTD TO CLD VIS AND WIND